Time;durP1;ratioP1;P1;durP2;ratioP2;P2;SDS_P1;SDS_P2;PMS_P1;PMS_P2;Temp;Humidity;BMP_temperature;BMP_pressure;BME280_temperature;BME280_humidity;BME280_pressure;Samples;Min_cycle;Max_cycle;Signal;HPM_P1;HPM_P2
2021/01/18 00:00:47;;;;;;;8.33;7.40;;;;;;;2.28;96.59;96046.28;5030960;28;20202;-76
2021/01/18 00:03:13;;;;;;;8.33;7.50;;;;;;;2.36;95.62;96059.22;5030395;28;20308;-76
2021/01/18 00:05:39;;;;;;;7.47;6.77;;;;;;;2.34;96.00;96046.63;5030555;28;20241;-76
2021/01/18 00:08:05;;;;;;;7.37;6.67;;;;;;;2.36;95.91;96054.94;5030056;28;20202;-76
2021/01/18 00:10:31;;;;;;;7.27;6.57;;;;;;;2.39;95.64;96057.25;5030333;28;20221;-76
2021/01/18 00:12:58;;;;;;;7.17;6.47;;;;;;;2.35;95.86;96052.50;5030134;28;20259;-76
2021/01/18 00:15:25;;;;;;;6.83;6.23;;;;;;;2.37;95.56;96048.13;5030261;28;20320;-75
2021/01/18 00:17:52;;;;;;;6.30;5.70;;;;;;;2.30;96.24;96052.88;5030606;28;20231;-76
2021/01/18 00:20:19;;;;;;;6.80;6.17;;;;;;;2.24;96.89;96044.88;5030167;28;20233;-76
2021/01/18 00:22:46;;;;;;;6.77;6.03;;;;;;;2.27;96.25;96047.22;5030521;28;20226;-76
2021/01/18 00:25:13;;;;;;;6.87;6.27;;;;;;;2.29;96.45;96058.06;5030282;28;20194;-76
2021/01/18 00:27:40;;;;;;;6.70;6.10;;;;;;;2.26;96.98;96059.09;5030461;28;20213;-75
2021/01/18 00:30:10;;;;;;;6.20;5.60;;;;;;;2.26;96.91;96064.19;5029845;28;20222;-75
2021/01/18 00:32:36;;;;;;;7.03;5.80;;;;;;;2.28;95.99;96062.34;5030215;28;20194;-75
2021/01/18 00:35:02;;;;;;;6.13;5.53;;;;;;;2.38;95.60;96065.00;5029992;28;20197;-76
2021/01/18 00:37:28;;;;;;;6.27;5.67;;;;;;;2.41;94.91;96062.22;5030193;28;20198;-76
2021/01/18 00:39:54;;;;;;;5.57;5.07;;;;;;;2.42;94.62;96062.09;5030198;28;20252;-75
2021/01/18 00:42:21;;;;;;;6.50;5.33;;;;;;;2.35;95.52;96058.41;5030014;28;20205;-75
2021/01/18 00:44:47;;;;;;;6.10;5.50;;;;;;;2.35;95.43;96060.13;5029998;28;20205;-75
2021/01/18 00:47:14;;;;;;;6.37;5.77;;;;;;;2.42;94.80;96064.66;5030308;28;20204;-76
2021/01/18 00:49:41;;;;;;;6.03;5.53;;;;;;;2.46;94.66;96057.63;5014482;28;20240;-76
2021/01/18 00:52:07;;;;;;;6.10;5.50;;;;;;;2.51;94.19;96062.31;5030061;28;20213;-76
2021/01/18 00:54:33;;;;;;;5.73;5.23;;;;;;;2.44;94.14;96059.47;5029586;28;20206;-76
2021/01/18 00:57:02;;;;;;;5.60;5.10;;;;;;;2.44;94.35;96072.16;5029556;28;20301;-76
2021/01/18 00:59:28;;;;;;;5.60;5.10;;;;;;;2.44;94.47;96074.69;5029813;28;20238;-76
2021/01/18 01:01:54;;;;;;;5.80;5.30;;;;;;;2.44;94.52;96082.31;5029607;28;20202;-76
2021/01/18 01:04:21;;;;;;;5.63;5.13;;;;;;;2.51;94.06;96082.66;5029487;28;20769;-75
2021/01/18 01:06:46;;;;;;;5.80;5.30;;;;;;;2.51;93.69;96083.47;5033459;28;20202;-75
2021/01/18 01:09:12;;;;;;;5.67;4.93;;;;;;;2.50;93.81;96089.50;5033671;28;20229;-75
2021/01/18 01:11:43;;;;;;;5.83;5.23;;;;;;;2.49;94.30;96079.44;5034018;28;20221;-76
2021/01/18 01:14:10;;;;;;;5.27;4.77;;;;;;;2.51;93.82;96085.19;5033427;28;20202;-75
2021/01/18 01:16:35;;;;;;;5.13;4.63;;;;;;;2.45;94.47;96086.50;5013842;28;20214;-76
2021/01/18 01:19:01;;;;;;;5.33;4.80;;;;;;;2.42;94.80;96091.78;5020108;28;20299;-75
2021/01/18 01:21:28;;;;;;;4.80;4.40;;;;;;;2.38;94.76;96088.66;5033745;28;20202;-76
2021/01/18 01:23:54;;;;;;;5.53;4.60;;;;;;;2.43;94.65;96086.59;5033163;28;20551;-76
2021/01/18 01:26:20;;;;;;;4.80;4.33;;;;;;;2.38;94.46;96088.66;5033573;28;20209;-76
2021/01/18 01:28:46;;;;;;;4.93;4.23;;;;;;;2.37;94.73;96092.13;5033040;28;20226;-76
2021/01/18 01:31:12;;;;;;;5.80;4.70;;;;;;;2.42;94.27;96091.78;5033483;28;20744;-75
2021/01/18 01:33:38;;;;;;;4.83;4.43;;;;;;;2.34;94.45;96087.25;5033348;28;20205;-75
2021/01/18 01:36:04;;;;;;;5.07;4.57;;;;;;;2.33;94.85;96090.72;5033225;28;20213;-76
2021/01/18 01:38:33;;;;;;;4.57;4.17;;;;;;;2.40;94.52;96091.91;5032544;28;20226;-76
2021/01/18 01:40:59;;;;;;;4.77;4.37;;;;;;;2.37;94.45;96093.84;5033344;28;20736;-76
2021/01/18 01:43:25;;;;;;;4.90;4.50;;;;;;;2.47;94.13;96094.81;5032590;28;20199;-76
2021/01/18 01:45:51;;;;;;;5.13;4.50;;;;;;;2.50;94.08;96093.78;5032819;28;20217;-76
2021/01/18 01:48:18;;;;;;;5.40;4.90;;;;;;;2.52;93.65;96096.97;5032975;28;20198;-75
2021/01/18 01:50:45;;;;;;;5.20;4.70;;;;;;;2.58;93.00;96091.44;5033453;28;20229;-75
2021/01/18 01:53:15;;;;;;;5.27;4.70;;;;;;;2.55;93.27;96099.31;5032493;28;20241;-76
2021/01/18 01:55:42;;;;;;;5.10;4.60;;;;;;;2.53;93.09;96094.31;5023818;28;20209;-76
2021/01/18 01:58:09;;;;;;;5.00;4.60;;;;;;;2.61;92.72;96101.41;5032715;28;20677;-75
2021/01/18 02:00:39;;;;;;;5.37;4.87;;;;;;;2.57;93.12;96102.53;5032921;28;20198;-76
2021/01/18 02:03:06;;;;;;;5.03;4.53;;;;;;;2.61;92.57;96098.84;5033305;28;20252;-75
2021/01/18 02:05:32;;;;;;;5.10;4.70;;;;;;;2.54;93.12;96105.31;5031987;28;20727;-76
2021/01/18 02:07:59;;;;;;;5.53;4.90;;;;;;;2.55;93.06;96096.75;5032655;28;20210;-76
2021/01/18 02:10:26;;;;;;;5.27;4.63;;;;;;;2.47;93.81;96087.19;5032301;28;20305;-76
2021/01/18 02:12:53;;;;;;;5.57;5.07;;;;;;;2.52;93.74;96079.19;5032387;28;20198;-76
2021/01/18 02:15:40;;;;;;;5.40;4.90;;;;;;;2.56;93.09;96083.13;5032279;28;20721;-76
2021/01/18 02:18:19;;;;;;;5.33;4.83;;;;;;;2.50;93.96;96084.41;5031918;28;20210;-75
2021/01/18 02:21:15;;;;;;;4.83;4.43;;;;;;;2.56;93.26;96086.47;5032813;28;20197;-76
2021/01/18 02:24:01;;;;;;;5.00;4.50;;;;;;;2.64;93.24;96093.53;5032246;28;20892;-76
2021/01/18 02:26:55;;;;;;;5.30;4.80;;;;;;;2.62;92.95;96096.19;5032302;28;20260;-76
2021/01/18 02:29:32;;;;;;;5.30;4.80;;;;;;;2.68;92.38;96092.41;5031832;28;20230;-75
2021/01/18 02:32:22;;;;;;;5.60;4.60;;;;;;;2.71;92.20;96092.94;5032092;28;20229;-76
2021/01/18 02:35:09;;;;;;;4.70;4.20;;;;;;;2.73;91.61;96093.66;5031881;28;20202;-75
2021/01/18 02:38:07;;;;;;;5.10;4.60;;;;;;;2.77;91.27;96096.78;5025245;28;20220;-76
2021/01/18 02:40:41;;;;;;;4.60;4.20;;;;;;;2.75;91.80;96096.06;5032199;28;20205;-75
2021/01/18 02:43:10;;;;;;;5.43;4.93;;;;;;;2.74;91.92;96095.25;5031504;28;20248;-75
2021/01/18 02:45:36;;;;;;;5.30;4.80;;;;;;;2.71;91.97;96100.56;5011987;28;20210;-77
2021/01/18 02:48:03;;;;;;;5.93;5.20;;;;;;;2.60;92.92;96102.31;5027999;28;20268;-76
2021/01/18 02:50:31;;;;;;;5.60;5.10;;;;;;;2.58;92.77;96099.06;5031548;28;20229;-76
2021/01/18 02:52:59;;;;;;;6.10;5.20;;;;;;;2.58;93.28;96092.25;5032121;28;20697;-76
2021/01/18 02:55:25;;;;;;;5.33;4.83;;;;;;;2.61;93.02;96093.78;5031458;28;20220;-76
2021/01/18 02:57:52;;;;;;;5.73;5.00;;;;;;;2.61;nan;96099.66;5031938;28;20785;-76
2021/01/18 03:00:23;;;;;;;5.87;5.37;;;;;;;2.62;92.73;96097.94;5031287;28;20280;-76
2021/01/18 03:03:00;;;;;;;5.97;5.10;;;;;;;2.59;92.71;96101.50;5031303;28;20205;-76
2021/01/18 03:05:37;;;;;;;6.10;5.50;;;;;;;2.53;93.09;96103.69;5031428;28;20787;-76
2021/01/18 03:08:12;;;;;;;6.00;5.40;;;;;;;2.47;93.75;96109.25;5031464;28;20226;-75
2021/01/18 03:10:41;;;;;;;5.93;5.33;;;;;;;2.45;94.12;96108.53;5031373;28;20626;-76
2021/01/18 03:13:15;;;;;;;6.57;5.37;;;;;;;2.48;94.23;96109.13;5030677;28;20194;-76
2021/01/18 03:15:44;;;;;;;6.33;5.30;;;;;;;2.39;94.37;96112.34;5031450;28;20202;-76
2021/01/18 03:18:15;;;;;;;6.17;5.57;;;;;;;2.43;93.94;96106.13;5031247;28;20194;-75
2021/01/18 03:20:43;;;;;;;6.13;5.53;;;;;;;2.42;94.15;96107.84;5031278;28;20197;-76
2021/01/18 03:23:11;;;;;;;6.17;5.57;;;;;;;2.44;93.75;96112.81;5031023;28;20748;-75
2021/01/18 03:25:48;;;;;;;5.40;4.90;;;;;;;2.46;93.69;96113.53;5030768;28;20198;-76
2021/01/18 03:28:14;;;;;;;6.00;5.40;;;;;;;2.45;93.42;96116.97;5030687;28;20237;-76
2021/01/18 03:30:40;;;;;;;6.43;5.47;;;;;;;2.45;93.46;96121.25;5031054;28;20222;-75
2021/01/18 03:33:06;;;;;;;5.73;5.20;;;;;;;2.43;94.05;96114.56;5030824;28;20263;-76
2021/01/18 03:35:32;;;;;;;6.20;5.60;;;;;;;2.46;93.82;96105.09;5030767;28;20194;-76
2021/01/18 03:37:59;;;;;;;6.50;5.63;;;;;;;2.50;93.49;96104.75;5030596;28;20755;-74
2021/01/18 03:40:27;;;;;;;5.70;5.10;;;;;;;2.55;93.05;96117.09;5030819;28;20244;-76
2021/01/18 03:42:54;;;;;;;5.87;4.87;;;;;;;2.53;92.39;96107.03;5030718;28;20724;-75
2021/01/18 03:45:21;;;;;;;6.37;5.70;;;;;;;2.53;92.37;96111.31;5030063;28;20202;-75
2021/01/18 03:47:47;;;;;;;5.90;5.17;;;;;;;2.54;91.86;96102.75;5030969;28;20206;-76
2021/01/18 03:50:13;;;;;;;5.70;4.90;;;;;;;2.54;91.65;96105.31;5030134;28;20253;-76
2021/01/18 03:52:39;;;;;;;6.90;5.40;;;;;;;2.57;92.23;96110.97;5030692;28;20205;-77
2021/01/18 03:55:06;;;;;;;6.87;5.40;;;;;;;2.51;92.05;96113.16;5029916;28;20206;-76
2021/01/18 03:57:33;;;;;;;7.33;5.20;;;;;;;2.57;91.52;96117.78;5030963;28;20198;-76
2021/01/18 03:59:59;;;;;;;8.47;5.20;;;;;;;2.59;91.53;96115.94;5030367;28;20222;-75
2021/01/18 04:02:24;;;;;;;6.30;5.50;;;;;;;2.54;91.97;96110.38;5031005;28;20213;-75
2021/01/18 04:04:50;;;;;;;5.73;5.20;;;;;;;2.50;91.80;96111.56;5029793;28;20713;-75
2021/01/18 04:07:16;;;;;;;6.23;5.60;;;;;;;2.51;92.40;96108.06;5030357;28;20221;-76
2021/01/18 04:09:42;;;;;;;7.10;5.83;;;;;;;2.54;92.15;96107.84;5029736;28;20251;-76
2021/01/18 04:12:08;;;;;;;7.70;5.80;;;;;;;2.45;92.48;96121.25;5030659;28;20206;-75
2021/01/18 04:14:35;;;;;;;6.97;6.00;;;;;;;2.49;92.60;96118.38;5029913;28;20195;-75
2021/01/18 04:17:01;;;;;;;6.77;5.60;;;;;;;2.47;92.48;96117.69;5030713;28;20202;-75
2021/01/18 04:19:27;;;;;;;8.17;5.80;;;;;;;2.53;91.84;96124.03;5030250;28;20248;-76
2021/01/18 04:21:53;;;;;;;6.20;5.30;;;;;;;2.55;91.57;96127.25;5030091;28;20204;-75
2021/01/18 04:24:19;;;;;;;6.90;5.80;;;;;;;2.51;91.74;96131.75;5029959;28;20599;-76
2021/01/18 04:26:45;;;;;;;7.70;6.13;;;;;;;2.53;91.94;96144.34;5030146;28;20206;-76
2021/01/18 04:29:11;;;;;;;6.93;6.23;;;;;;;2.56;91.14;96129.69;5029882;28;20226;-76
2021/01/18 04:31:41;;;;;;;8.83;6.77;;;;;;;2.45;91.81;96129.69;5030071;28;20248;-75
2021/01/18 04:34:07;;;;;;;8.13;6.87;;;;;;;2.54;91.57;96128.19;5029842;28;20202;-76
2021/01/18 04:36:38;;;;;;;8.73;7.30;;;;;;;2.57;91.02;96122.88;5029712;28;20198;-76
2021/01/18 04:39:05;;;;;;;9.50;8.07;;;;;;;2.54;90.93;96121.38;5030170;28;20226;-76
2021/01/18 04:41:31;;;;;;;11.17;7.87;;;;;;;2.58;90.88;96125.31;5033435;28;20205;-75
2021/01/18 04:43:59;;;;;;;10.60;7.87;;;;;;;2.58;90.82;96140.56;5033947;28;20202;-76
2021/01/18 04:46:28;;;;;;;8.23;7.27;;;;;;;2.55;91.24;96130.59;5034008;28;20202;-75
2021/01/18 04:48:58;;;;;;;10.17;6.93;;;;;;;2.63;91.04;96135.13;5033722;28;20839;-75
2021/01/18 04:51:24;;;;;;;8.83;6.70;;;;;;;2.57;91.41;96130.50;5033294;28;20229;-76
2021/01/18 04:53:51;;;;;;;6.83;6.13;;;;;;;2.54;91.01;96128.19;5033662;28;20208;-76
2021/01/18 04:56:36;;;;;;;7.33;5.67;;;;;;;2.42;92.12;96133.25;5034023;28;20292;-76
2021/01/18 04:59:03;;;;;;;8.10;5.37;;;;;;;2.34;93.22;96133.00;5033361;28;20222;-75
2021/01/18 05:01:30;;;;;;;7.77;5.67;;;;;;;2.38;92.76;96129.31;5033507;28;20190;-76
2021/01/18 05:04:05;;;;;;;6.93;5.20;;;;;;;2.42;92.82;96137.53;5033664;28;20293;-75
2021/01/18 05:06:43;;;;;;;6.73;5.63;;;;;;;2.37;92.88;96131.97;5033828;28;20205;-76
2021/01/18 05:09:27;;;;;;;8.00;5.87;;;;;;;2.48;93.01;96134.53;5014309;28;20645;-75
2021/01/18 05:11:54;;;;;;;9.87;6.00;;;;;;;2.41;92.97;96141.00;5030516;28;20332;-75
2021/01/18 05:14:20;;;;;;;6.93;5.73;;;;;;;2.48;93.18;96128.66;5033264;28;20202;-76
2021/01/18 05:16:52;;;;;;;7.47;5.10;;;;;;;2.41;92.95;96136.72;5033528;28;20205;-75
2021/01/18 05:19:20;;;;;;;6.73;5.50;;;;;;;2.45;92.81;96132.22;5033721;28;20226;-76
2021/01/18 05:21:47;;;;;;;7.53;5.40;;;;;;;2.43;92.79;96144.22;5033557;28;20552;-76
2021/01/18 05:24:14;;;;;;;8.53;5.53;;;;;;;2.45;92.59;96139.84;5033712;28;20228;-76
2021/01/18 05:26:41;;;;;;;6.50;5.70;;;;;;;2.45;92.66;96146.66;5032691;28;20256;-76
2021/01/18 05:29:07;;;;;;;6.43;5.53;;;;;;;2.49;91.84;96146.34;5033064;28;20321;-75
2021/01/18 05:31:34;;;;;;;6.97;5.30;;;;;;;2.52;91.83;96145.28;5033172;28;20214;-76
2021/01/18 05:34:02;;;;;;;8.70;6.07;;;;;;;2.41;91.90;96151.16;5033133;28;20217;-76
2021/01/18 05:36:36;;;;;;;7.27;5.73;;;;;;;2.43;92.13;96150.13;5032593;28;20647;-76
2021/01/18 05:39:17;;;;;;;8.90;5.83;;;;;;;2.41;91.71;96156.25;5033248;28;20217;-75
2021/01/18 05:41:44;;;;;;;7.40;5.90;;;;;;;2.42;91.66;96157.84;5032977;28;20281;-76
2021/01/18 05:44:11;;;;;;;7.33;6.00;;;;;;;2.39;92.31;96151.25;5032262;28;20198;-74
2021/01/18 05:46:38;;;;;;;7.57;5.63;;;;;;;2.39;92.10;96158.88;5033031;28;20206;-76
2021/01/18 05:49:08;;;;;;;7.07;5.67;;;;;;;2.40;91.83;96157.97;5029761;28;23181;-77
2021/01/18 05:51:36;;;;;;;7.73;5.60;;;;;;;2.40;92.20;96159.69;5029721;28;20241;-75
2021/01/18 05:54:03;;;;;;;6.43;5.53;;;;;;;2.53;91.59;96159.59;5031939;28;20260;-76
2021/01/18 05:56:38;;;;;;;7.07;5.37;;;;;;;2.52;91.17;96158.78;5031929;28;20209;-78
2021/01/18 05:59:18;;;;;;;7.60;5.80;;;;;;;2.57;90.67;96161.81;5034963;28;20309;-78
2021/01/18 06:01:44;;;;;;;8.53;5.70;;;;;;;2.67;90.09;96159.41;5013025;28;20199;-76
2021/01/18 06:04:12;;;;;;;7.43;5.20;;;;;;;2.59;90.20;96170.13;5027435;28;20689;-75
2021/01/18 06:06:40;;;;;;;5.50;4.90;;;;;;;2.59;90.12;96171.88;5032553;28;20206;-75
2021/01/18 06:09:06;;;;;;;6.13;5.30;;;;;;;2.54;90.69;96169.66;5032977;28;20355;-76
2021/01/18 06:11:32;;;;;;;6.57;5.53;;;;;;;2.54;90.56;96166.31;5031506;28;20226;-76
2021/01/18 06:13:59;;;;;;;6.83;5.63;;;;;;;2.52;90.48;96165.59;5032295;28;20206;-75
2021/01/18 06:16:26;;;;;;;8.07;6.00;;;;;;;2.59;90.48;96166.78;5032023;28;20266;-75
2021/01/18 06:19:00;;;;;;;7.63;5.67;;;;;;;2.61;90.36;96172.56;5031110;28;20599;-74
2021/01/18 06:21:35;;;;;;;8.43;5.90;;;;;;;2.63;89.73;96171.53;5032211;28;20296;-75
2021/01/18 06:24:15;;;;;;;8.47;5.97;;;;;;;2.55;90.27;96168.72;5032360;28;20201;-76
2021/01/18 06:26:41;;;;;;;7.17;5.90;;;;;;;2.62;90.05;96176.72;5032032;28;20206;-76
2021/01/18 06:29:07;;;;;;;6.57;5.80;;;;;;;2.60;89.96;96184.47;5032074;28;20261;-76
2021/01/18 06:31:45;;;;;;;8.37;5.57;;;;;;;2.58;90.41;96183.75;5031974;28;20237;-74
2021/01/18 06:34:27;;;;;;;6.23;5.23;;;;;;;2.57;90.40;96181.34;5032345;28;20197;-75
2021/01/18 06:36:55;;;;;;;12.67;8.30;;;;;;;2.60;90.32;96179.38;5033062;28;20202;-75
2021/01/18 06:39:27;;;;;;;6.97;6.10;;;;;;;2.61;90.25;96191.16;5033958;28;20289;-76
2021/01/18 06:41:59;;;;;;;6.13;5.23;;;;;;;2.57;90.40;96182.16;5033317;28;20275;-76
2021/01/18 06:44:39;;;;;;;8.33;6.17;;;;;;;2.48;91.04;96193.00;5031756;28;20198;-75
2021/01/18 06:47:24;;;;;;;8.57;5.97;;;;;;;2.52;90.95;96184.22;5031601;28;20202;-76
2021/01/18 06:49:52;;;;;;;8.67;6.03;;;;;;;2.60;90.41;96181.91;5031385;28;20864;-76
2021/01/18 06:52:24;;;;;;;6.87;6.17;;;;;;;2.55;90.83;96188.25;5032156;28;20209;-75
2021/01/18 06:54:59;;;;;;;6.70;6.00;;;;;;;2.49;91.03;96193.81;5031788;28;20290;-76
2021/01/18 06:57:42;;;;;;;6.90;6.10;;;;;;;2.47;91.61;96204.09;5032308;28;20198;-75
2021/01/18 07:00:12;;;;;;;6.70;6.00;;;;;;;2.47;91.19;96219.34;5031989;28;20233;-76
2021/01/18 07:02:38;;;;;;;9.27;8.27;;;;;;;2.48;91.12;96205.72;5030563;28;20213;-76
2021/01/18 07:05:07;;;;;;;7.90;6.60;;;;;;;2.45;91.52;96203.38;5031685;28;20198;-76
2021/01/18 07:07:35;;;;;;;8.00;6.03;;;;;;;2.55;91.25;96218.75;5031470;28;20209;-75
2021/01/18 07:10:05;;;;;;;9.53;6.70;;;;;;;2.64;90.33;96224.00;5031378;28;20218;-76
2021/01/18 07:12:31;;;;;;;8.33;6.73;;;;;;;2.64;90.60;96218.09;5031332;28;20620;-76
2021/01/18 07:14:59;;;;;;;8.87;6.43;;;;;;;2.65;90.31;96232.44;5031243;28;20277;-76
2021/01/18 07:17:51;;;;;;;8.27;6.53;;;;;;;2.63;90.53;96227.47;5031425;28;20197;-76
2021/01/18 07:20:22;;;;;;;8.80;6.67;;;;;;;2.64;90.56;96228.28;5031627;28;20218;-76
2021/01/18 07:23:03;;;;;;;8.07;6.47;;;;;;;2.65;90.52;96233.25;5031586;28;20208;-75
2021/01/18 07:25:36;;;;;;;9.13;6.40;;;;;;;2.57;91.15;96222.81;5031303;28;20198;-75
2021/01/18 07:28:03;;;;;;;9.00;7.03;;;;;;;2.59;91.05;96240.50;5031274;28;20210;-75
2021/01/18 07:30:34;;;;;;;10.10;6.50;;;;;;;2.55;91.86;96251.81;5031105;28;20225;-76
2021/01/18 07:33:07;;;;;;;8.10;6.57;;;;;;;2.56;92.03;96245.78;5031205;28;20210;-76
2021/01/18 07:35:35;;;;;;;8.17;6.77;;;;;;;2.58;92.24;96247.31;5030752;28;20199;-75
2021/01/18 07:38:12;;;;;;;7.20;6.23;;;;;;;2.54;91.86;96250.19;5031485;28;20297;-75
2021/01/18 07:40:39;;;;;;;7.90;6.60;;;;;;;2.59;91.64;96255.75;5032224;28;20233;-77
2021/01/18 07:43:05;;;;;;;8.83;6.33;;;;;;;2.65;91.37;96258.66;5030659;28;20198;-75
2021/01/18 07:45:31;;;;;;;10.33;7.87;;;;;;;2.62;91.85;96258.88;5030468;28;20257;-76
2021/01/18 07:48:06;;;;;;;8.37;7.07;;;;;;;2.65;91.38;96256.13;5030688;28;20848;-76
2021/01/18 07:50:33;;;;;;;7.23;5.90;;;;;;;2.62;91.46;96269.06;5030247;28;20225;-75
2021/01/18 07:52:59;;;;;;;6.40;5.60;;;;;;;2.59;91.60;96271.81;5030896;28;20202;-76
2021/01/18 07:55:25;;;;;;;6.23;5.63;;;;;;;2.58;91.76;96266.84;5030507;28;20340;-75
2021/01/18 07:57:52;;;;;;;6.73;5.37;;;;;;;2.63;91.14;96272.41;5030486;28;20199;-75
2021/01/18 08:00:36;;;;;;;7.10;5.70;;;;;;;2.55;91.63;96270.41;5030347;28;20253;-76
2021/01/18 08:03:28;;;;;;;6.93;5.83;;;;;;;2.57;91.84;96278.72;5031180;28;20260;-75
2021/01/18 08:06:07;;;;;;;5.90;5.30;;;;;;;2.62;91.63;96275.88;5030136;28;20629;-76
2021/01/18 08:08:34;;;;;;;7.63;5.57;;;;;;;2.56;91.47;96276.31;5030301;28;20205;-77
2021/01/18 08:11:02;;;;;;;8.23;6.23;;;;;;;2.61;91.62;96287.75;5030333;28;20225;-74
2021/01/18 08:13:34;;;;;;;8.40;5.60;;;;;;;2.60;90.74;96290.41;5030121;28;20238;-75
2021/01/18 08:16:13;;;;;;;6.80;5.43;;;;;;;2.62;90.40;96296.19;5029166;28;20202;-75
2021/01/18 08:18:50;;;;;;;6.67;5.47;;;;;;;2.62;90.12;96299.56;5030216;28;20218;-75
2021/01/18 08:21:58;;;;;;;7.47;5.73;;;;;;;2.56;91.08;96294.91;5030342;28;20198;-75
2021/01/18 08:24:55;;;;;;;7.73;5.23;;;;;;;2.59;90.50;96304.03;5030133;28;20198;-74
2021/01/18 08:27:41;;;;;;;6.60;4.90;;;;;;;2.65;89.76;96311.25;5030088;28;20225;-74
2021/01/18 08:30:28;;;;;;;6.20;5.57;;;;;;;2.60;89.51;96318.38;5030066;28;20241;-77
2021/01/18 08:32:56;;;;;;;8.00;5.10;;;;;;;2.61;90.57;96315.72;5030394;28;20280;-75
2021/01/18 08:35:29;;;;;;;7.30;5.20;;;;;;;2.55;90.01;96312.81;5029659;28;20790;-75
2021/01/18 08:37:59;;;;;;;6.20;5.47;;;;;;;2.56;90.18;96316.97;5029979;28;20202;-75
2021/01/18 08:40:32;;;;;;;8.07;5.10;;;;;;;2.64;89.86;96320.59;5029868;28;20218;-76
2021/01/18 08:42:58;;;;;;;6.93;4.87;;;;;;;2.65;89.55;96312.06;5030405;28;20206;-76
2021/01/18 08:45:28;;;;;;;8.00;6.17;;;;;;;2.59;90.04;96317.56;5029889;28;20778;-76
2021/01/18 08:47:57;;;;;;;8.70;5.77;;;;;;;2.61;89.92;96317.47;5029775;28;20252;-75
2021/01/18 08:50:27;;;;;;;8.70;5.20;;;;;;;2.65;90.05;96329.03;5029800;28;20268;-74
2021/01/18 08:52:55;;;;;;;7.83;5.30;;;;;;;2.69;90.13;96323.59;5030141;28;20202;-76
2021/01/18 08:55:43;;;;;;;6.97;5.23;;;;;;;2.62;90.09;96330.06;5029999;28;20209;-76
2021/01/18 08:58:10;;;;;;;8.93;7.47;;;;;;;2.65;89.63;96329.84;5030008;28;20260;-76
2021/01/18 09:00:42;;;;;;;9.13;6.47;;;;;;;2.66;90.07;96331.47;5029968;28;20272;-76
2021/01/18 09:03:10;;;;;;;7.87;4.77;;;;;;;2.61;90.51;96327.63;5029845;28;20202;-75
2021/01/18 09:05:37;;;;;;;8.37;4.70;;;;;;;2.69;90.14;96333.00;5029710;28;20202;-76
2021/01/18 09:08:07;;;;;;;6.60;5.00;;;;;;;2.72;89.59;96342.91;5030380;28;20794;-76
2021/01/18 09:10:33;;;;;;;6.43;5.03;;;;;;;2.64;89.49;96335.03;5030022;28;20234;-76
2021/01/18 09:13:05;;;;;;;7.70;5.27;;;;;;;2.82;89.16;96335.44;5029813;28;20393;-76
2021/01/18 09:15:32;;;;;;;7.73;4.70;;;;;;;2.75;88.01;96329.97;5029782;28;20260;-75
2021/01/18 09:18:09;;;;;;;6.67;5.17;;;;;;;2.85;87.28;96343.69;5029560;28;20202;-76
2021/01/18 09:20:38;;;;;;;5.70;4.27;;;;;;;2.76;86.84;96344.31;5029842;28;20598;-76
2021/01/18 09:23:06;;;;;;;4.97;4.33;;;;;;;2.74;86.52;96341.88;5029928;28;20293;-76
2021/01/18 09:25:32;;;;;;;7.20;4.40;;;;;;;2.75;86.60;96340.16;5029855;28;20206;-76
2021/01/18 09:28:04;;;;;;;8.60;4.30;;;;;;;2.75;86.05;96343.50;5033306;28;20583;-76
2021/01/18 09:30:30;;;;;;;6.00;4.20;;;;;;;2.79;85.84;96339.03;5033173;28;20647;-77
2021/01/18 09:32:56;;;;;;;9.73;6.50;;;;;;;2.78;86.47;96352.66;5033526;28;20208;-76
2021/01/18 09:35:25;;;;;;;8.13;4.70;;;;;;;2.67;87.03;96347.53;5033213;28;20217;-76
2021/01/18 09:37:51;;;;;;;5.40;4.07;;;;;;;2.68;85.87;96339.81;5033310;28;20202;-76
2021/01/18 09:40:18;;;;;;;7.20;4.33;;;;;;;2.75;85.79;96343.50;5033169;28;20229;-76
2021/01/18 09:42:46;;;;;;;7.23;4.50;;;;;;;2.92;85.61;96347.38;5033373;28;20198;-76
2021/01/18 09:45:13;;;;;;;6.70;4.40;;;;;;;2.95;84.55;96351.44;5032927;28;20213;-76
2021/01/18 09:47:39;;;;;;;5.37;4.43;;;;;;;3.00;84.66;96341.75;5033250;28;20206;-76
2021/01/18 09:50:08;;;;;;;6.23;4.50;;;;;;;3.08;83.17;96341.97;5032989;28;20222;-77
2021/01/18 09:52:38;;;;;;;5.80;4.33;;;;;;;3.13;83.00;96348.38;5033206;28;20198;-76
2021/01/18 09:55:10;;;;;;;6.10;3.97;;;;;;;3.00;82.88;96350.19;5032778;28;20202;-76
2021/01/18 09:57:38;;;;;;;4.87;3.90;;;;;;;3.05;83.44;96342.22;5032891;28;20213;-76
2021/01/18 10:00:06;;;;;;;4.77;4.27;;;;;;;3.08;83.65;96358.06;5032844;28;20218;-75
2021/01/18 10:02:36;;;;;;;5.67;4.10;;;;;;;3.25;90.45;96350.97;5032970;28;20210;-76
2021/01/18 10:05:06;;;;;;;7.10;4.03;;;;;;;3.24;82.86;96351.88;5032403;28;20673;-77
2021/01/18 10:07:41;;;;;;;7.30;4.00;;;;;;;3.23;82.18;96348.53;5032693;28;20249;-77
2021/01/18 10:10:08;;;;;;;5.93;3.63;;;;;;;3.19;81.73;96343.75;5032412;28;20221;-76
2021/01/18 10:12:38;;;;;;;4.23;3.60;;;;;;;3.24;81.34;96356.97;5032679;28;20198;-77
2021/01/18 10:15:05;;;;;;;5.67;4.10;;;;;;;3.25;81.04;96343.31;5032691;28;20206;-75
2021/01/18 10:17:32;;;;;;;6.03;3.60;;;;;;;3.21;80.23;96344.47;5032735;28;20601;-76
2021/01/18 10:20:07;;;;;;;4.87;3.40;;;;;;;3.18;80.40;96339.59;5032510;28;20602;-75
2021/01/18 10:22:37;;;;;;;5.90;3.90;;;;;;;3.13;80.08;96339.91;5032283;28;20198;-76
2021/01/18 10:25:09;;;;;;;6.37;3.80;;;;;;;3.17;80.29;96346.41;5031987;28;20206;-76
2021/01/18 10:27:35;;;;;;;7.10;3.80;;;;;;;3.13;80.04;96338.19;5032482;28;20198;-75
2021/01/18 10:30:10;;;;;;;5.40;3.70;;;;;;;3.16;79.73;96342.25;5031891;28;20321;-76
2021/01/18 10:32:40;;;;;;;7.90;3.87;;;;;;;3.15;79.99;96340.63;5032606;28;20201;-76
2021/01/18 10:35:22;;;;;;;6.43;3.90;;;;;;;3.26;79.44;96343.22;5031882;28;20194;-76
2021/01/18 10:37:48;;;;;;;4.27;3.87;;;;;;;3.26;78.68;96344.94;5031055;28;20302;-77
2021/01/18 10:40:20;;;;;;;4.97;3.43;;;;;;;3.25;78.73;96343.31;5031866;28;20761;-76
2021/01/18 10:42:51;;;;;;;6.33;3.50;;;;;;;3.22;77.81;96344.34;5032180;28;20795;-76
2021/01/18 10:45:19;;;;;;;5.07;4.07;;;;;;;3.22;78.12;96338.44;5031855;28;20205;-75
2021/01/18 10:47:58;;;;;;;5.30;3.83;;;;;;;3.18;76.94;96339.59;5032276;28;20277;-75
2021/01/18 10:50:26;;;;;;;4.73;3.77;;;;;;;3.10;77.59;96337.59;5031695;28;20230;-76
2021/01/18 10:53:05;;;;;;;4.67;3.63;;;;;;;3.05;77.92;96332.06;5031501;28;20759;-76
2021/01/18 10:55:31;;;;;;;8.33;3.37;;;;;;;3.20;78.31;96340.28;5031658;28;20255;-76
2021/01/18 10:57:57;;;;;;;6.07;3.73;;;;;;;3.18;78.02;96342.13;5031552;28;20233;-76
2021/01/18 11:00:25;;;;;;;5.80;3.50;;;;;;;3.12;79.03;96344.19;5031544;28;20221;-76
2021/01/18 11:02:56;;;;;;;4.27;3.40;;;;;;;3.08;79.47;96340.25;5031603;28;20267;-76
2021/01/18 11:05:30;;;;;;;4.83;3.77;;;;;;;3.14;81.91;96339.00;5031243;28;20213;-78
2021/01/18 11:07:58;;;;;;;6.37;3.60;;;;;;;3.20;79.11;96333.47;5031560;28;20229;-77
2021/01/18 11:10:26;;;;;;;4.63;3.60;;;;;;;3.19;79.06;96333.59;5031239;28;20336;-76
2021/01/18 11:13:01;;;;;;;5.93;3.33;;;;;;;3.16;78.76;96341.44;5031509;28;20209;-76
2021/01/18 11:15:38;;;;;;;5.90;3.57;;;;;;;3.22;79.13;96338.44;5031140;28;20202;-77
2021/01/18 11:18:06;;;;;;;6.30;4.00;;;;;;;3.26;79.22;96332.22;5031755;28;20213;-76
2021/01/18 11:20:32;;;;;;;6.03;3.80;;;;;;;3.21;79.19;96327.47;5031164;28;20218;-76
2021/01/18 11:22:59;;;;;;;5.30;3.63;;;;;;;3.16;79.19;96326.97;5031185;28;20209;-75
2021/01/18 11:25:26;;;;;;;7.20;4.30;;;;;;;3.19;79.67;96325.94;5030753;28;20740;-76
2021/01/18 11:27:52;;;;;;;4.67;3.53;;;;;;;3.06;78.72;96324.31;5030873;28;20280;-76
2021/01/18 11:30:18;;;;;;;5.87;3.27;;;;;;;3.64;99.97;96317.44;5030724;28;20226;-75
2021/01/18 11:32:44;;;;;;;3.70;3.07;;;;;;;4.47;96.08;96306.75;5031154;28;20198;-76
2021/01/18 11:35:12;;;;;;;5.70;3.23;;;;;;;5.14;87.32;96309.81;5030742;28;20202;-75
2021/01/18 11:37:39;;;;;;;6.03;3.50;;;;;;;5.57;79.28;96303.72;5030954;28;20202;-76
2021/01/18 11:40:07;;;;;;;3.97;3.10;;;;;;;5.69;71.36;96300.13;5030684;28;20776;-76
2021/01/18 11:42:34;;;;;;;3.63;3.10;;;;;;;5.28;69.05;96301.00;5030645;28;20202;-77
2021/01/18 11:45:01;;;;;;;6.97;3.70;;;;;;;4.71;69.34;96298.91;5030249;28;20205;-76
2021/01/18 11:47:32;;;;;;;4.43;3.60;;;;;;;4.48;70.95;96298.16;5030939;28;20637;-76
2021/01/18 11:49:58;;;;;;;4.67;3.60;;;;;;;4.26;71.90;96295.69;5030989;28;20353;-76
2021/01/18 11:52:24;;;;;;;4.73;3.13;;;;;;;4.15;72.05;96301.63;5030624;28;20311;-77
2021/01/18 11:54:50;;;;;;;4.40;2.93;;;;;;;4.08;71.89;96293.66;5030524;28;20233;-76